Time;durP1;ratioP1;P1;durP2;ratioP2;P2;SDS_P1;SDS_P2;PMS_P1;PMS_P2;Temp;Humidity;BMP_temperature;BMP_pressure;BME280_temperature;BME280_humidity;BME280_pressure;Samples;Min_cycle;Max_cycle;Signal;HPM_P1;HPM_P2
2022/10/22 00:01:08;;;;;;;9.23;2.70;;;14.90;99.90;;;;;;5096704;28;20215;-59
2022/10/22 00:03:36;;;;;;;9.13;2.77;;;14.90;99.90;;;;;;5114636;28;20172;-58
2022/10/22 00:06:37;;;;;;;8.73;2.93;;;14.90;99.90;;;;;;5091922;28;20203;-58
2022/10/22 00:09:07;;;;;;;6.83;2.57;;;14.80;99.90;;;;;;5089120;28;20207;-58
2022/10/22 00:11:37;;;;;;;11.03;2.63;;;14.80;99.90;;;;;;5073386;28;20231;-58
2022/10/22 00:17:38;;;;;;;11.20;2.67;;;14.80;99.90;;;;;;5077019;28;20223;-58
2022/10/22 00:20:09;;;;;;;7.23;2.97;;;14.90;99.90;;;;;;5074367;28;20281;-59
2022/10/22 00:22:39;;;;;;;11.17;3.07;;;14.90;99.90;;;;;;5102893;28;20191;-58
2022/10/22 00:25:08;;;;;;;9.33;3.00;;;14.90;99.90;;;;;;5096974;28;20234;-58
2022/10/22 00:31:26;;;;;;;6.50;2.33;;;14.90;99.90;;;;;;5086304;28;20179;-58
2022/10/22 00:34:15;;;;;;;8.77;3.03;;;14.90;99.90;;;;;;5113591;28;20285;-59
2022/10/22 00:40:48;;;;;;;8.10;2.40;;;14.90;99.90;;;;;;5081268;28;20210;-58
2022/10/22 00:43:19;;;;;;;9.87;3.43;;;14.90;99.90;;;;;;5072935;28;20199;-59
2022/10/22 00:45:49;;;;;;;10.40;2.83;;;14.90;99.90;;;;;;5072741;28;20191;-58
2022/10/22 00:52:09;;;;;;;10.27;3.10;;;15.00;99.90;;;;;;5080301;28;20662;-58
2022/10/22 00:59:29;;;;;;;14.93;2.80;;;14.90;99.90;;;;;;5083346;28;20526;-59
2022/10/22 01:01:58;;;;;;;5.17;3.00;;;14.90;99.90;;;;;;5082676;28;20226;-58
2022/10/22 01:08:40;;;;;;;10.63;2.77;;;14.90;99.90;;;;;;5089812;28;20179;-58
2022/10/22 01:11:27;;;;;;;7.23;2.53;;;14.90;99.90;;;;;;5094298;28;20190;-58
2022/10/22 01:17:48;;;;;;;7.30;3.17;;;14.90;99.90;;;;;;5082294;28;20198;-58
2022/10/22 01:20:42;;;;;;;4.63;2.67;;;14.90;99.90;;;;;;5063251;28;20208;-58
2022/10/22 01:23:25;;;;;;;8.40;3.00;;;14.90;99.90;;;;;;5079143;28;20211;-59
2022/10/22 01:26:02;;;;;;;7.60;3.27;;;14.80;99.90;;;;;;5067216;28;20188;-58
2022/10/22 01:29:07;;;;;;;11.33;3.03;;;14.90;99.90;;;;;;5073779;28;20194;-58
2022/10/22 01:32:16;;;;;;;8.23;2.90;;;14.90;99.90;;;;;;5076801;28;20195;-58
2022/10/22 01:34:54;;;;;;;9.63;3.13;;;14.80;99.90;;;;;;5095677;28;20211;-59
2022/10/22 01:37:28;;;;;;;6.33;2.57;;;14.80;99.90;;;;;;5081965;28;20620;-58
2022/10/22 01:40:05;;;;;;;11.80;3.10;;;14.80;99.90;;;;;;5062560;28;20274;-58
2022/10/22 01:42:33;;;;;;;13.70;2.87;;;14.70;99.90;;;;;;5095359;28;20199;-58
2022/10/22 01:45:13;;;;;;;11.70;2.90;;;14.70;99.90;;;;;;5074844;28;20198;-58
2022/10/22 01:47:53;;;;;;;10.13;3.17;;;14.70;99.90;;;;;;5097871;28;20199;-58
2022/10/22 01:54:52;;;;;;;9.10;2.43;;;14.60;99.90;;;;;;5091282;28;20245;-58
2022/10/22 01:57:44;;;;;;;9.17;2.93;;;14.70;99.90;;;;;;5059096;28;20542;-58
2022/10/22 02:00:55;;;;;;;8.03;2.63;;;14.70;99.90;;;;;;5056273;28;20539;-58
2022/10/22 02:04:16;;;;;;;7.53;2.87;;;14.70;99.90;;;;;;5070924;28;20230;-58
2022/10/22 02:06:47;;;;;;;8.80;2.37;;;14.60;99.90;;;;;;5077446;28;20197;-58
2022/10/22 02:09:21;;;;;;;11.67;2.73;;;14.60;99.90;;;;;;5057091;28;20207;-58
2022/10/22 02:11:52;;;;;;;7.87;2.50;;;14.70;99.90;;;;;;5088906;28;20196;-59
2022/10/22 02:18:16;;;;;;;7.43;2.80;;;14.70;99.90;;;;;;5072120;28;20199;-59
2022/10/22 02:21:16;;;;;;;13.10;2.60;;;14.60;99.90;;;;;;5074049;28;20212;-58
2022/10/22 02:28:29;;;;;;;6.87;2.77;;;14.60;99.90;;;;;;5080260;28;20159;-57
2022/10/22 02:34:56;;;;;;;5.10;2.40;;;14.50;99.90;;;;;;5067913;28;20253;-58
2022/10/22 02:42:03;;;;;;;9.23;2.90;;;14.50;99.90;;;;;;5075185;28;20226;-58
2022/10/22 02:45:01;;;;;;;6.20;2.60;;;14.50;99.90;;;;;;5079152;28;20549;-58
2022/10/22 02:47:32;;;;;;;12.17;2.87;;;14.50;99.90;;;;;;5095406;28;20187;-59
2022/10/22 02:50:01;;;;;;;8.07;2.80;;;14.40;99.90;;;;;;5080808;28;20192;-58
2022/10/22 02:57:17;;;;;;;7.53;2.50;;;14.50;99.90;;;;;;5086715;28;20179;-58
2022/10/22 02:59:45;;;;;;;7.07;2.40;;;14.60;99.90;;;;;;5076283;28;20226;-58
2022/10/22 03:02:14;;;;;;;18.07;3.00;;;14.60;99.90;;;;;;5091105;28;20585;-58
2022/10/22 03:05:09;;;;;;;5.93;3.00;;;14.60;99.90;;;;;;5088395;28;20192;-58
2022/10/22 03:07:37;;;;;;;3.63;2.33;;;14.60;99.90;;;;;;5091708;28;20200;-58
2022/10/22 03:10:10;;;;;;;7.97;2.90;;;14.50;99.90;;;;;;5092254;28;20234;-59
2022/10/22 03:16:37;;;;;;;8.23;2.67;;;14.60;99.90;;;;;;5079618;28;20167;-59
2022/10/22 03:19:10;;;;;;;5.67;2.50;;;14.60;99.90;;;;;;5076815;28;20254;-57
2022/10/22 03:22:17;;;;;;;7.83;2.73;;;14.60;99.90;;;;;;5094773;28;20207;-58
2022/10/22 03:25:18;;;;;;;16.40;3.20;;;14.60;99.90;;;;;;5074483;28;20199;-59
2022/10/22 03:28:25;;;;;;;10.33;2.30;;;14.60;99.90;;;;;;5094649;28;20557;-57
2022/10/22 03:30:59;;;;;;;7.77;2.60;;;14.60;99.90;;;;;;5069040;28;20187;-57
2022/10/22 03:33:27;;;;;;;10.97;2.97;;;14.60;99.90;;;;;;5099704;28;20681;-58
2022/10/22 03:40:30;;;;;;;10.53;2.73;;;14.60;99.90;;;;;;5090927;28;20535;-57
2022/10/22 03:50:25;;;;;;;10.20;2.50;;;14.50;99.90;;;;;;5071894;28;20191;-57
2022/10/22 03:53:20;;;;;;;6.07;2.40;;;14.50;99.90;;;;;;5090171;28;20728;-57
2022/10/22 03:55:51;;;;;;;7.87;2.80;;;14.60;99.90;;;;;;5090726;28;20191;-57
2022/10/22 03:58:19;;;;;;;7.17;2.73;;;14.60;99.90;;;;;;5094276;28;20202;-57
2022/10/22 04:04:27;;;;;;;6.27;2.30;;;14.60;99.90;;;;;;5082455;28;20195;-57
2022/10/22 04:06:57;;;;;;;8.07;2.40;;;14.60;99.90;;;;;;5091540;28;20664;-58
2022/10/22 04:10:08;;;;;;;11.07;2.63;;;14.60;99.90;;;;;;5085450;28;20205;-58
2022/10/22 04:12:40;;;;;;;6.53;2.37;;;14.60;99.90;;;;;;5063068;28;20191;-58
2022/10/22 04:15:46;;;;;;;6.33;2.77;;;14.60;99.90;;;;;;5074979;28;20194;-58
2022/10/22 04:18:16;;;;;;;6.57;2.50;;;14.60;99.90;;;;;;5075660;28;20223;-58
2022/10/22 04:21:24;;;;;;;11.27;2.87;;;14.50;99.90;;;;;;5103494;28;20199;-59
2022/10/22 04:23:56;;;;;;;13.77;3.37;;;14.50;99.90;;;;;;5072518;28;20195;-58
2022/10/22 04:27:05;;;;;;;9.37;3.43;;;14.40;99.90;;;;;;5087835;28;20549;-57
2022/10/22 04:30:24;;;;;;;8.47;2.63;;;14.40;99.90;;;;;;5055761;28;20199;-57
2022/10/22 04:32:59;;;;;;;3.90;2.30;;;14.40;99.90;;;;;;5085244;28;20641;-57
2022/10/22 04:35:28;;;;;;;10.80;3.03;;;14.30;99.90;;;;;;5081784;28;20195;-58
2022/10/22 04:37:57;;;;;;;9.67;3.13;;;14.30;99.90;;;;;;5092263;28;20200;-58
2022/10/22 04:40:29;;;;;;;6.43;2.90;;;14.30;99.90;;;;;;5093305;28;20657;-58
2022/10/22 04:42:58;;;;;;;9.43;3.10;;;14.30;99.90;;;;;;5092880;28;20207;-58
2022/10/22 04:45:29;;;;;;;6.47;2.47;;;14.20;99.90;;;;;;5093115;28;20191;-58
2022/10/22 04:52:05;;;;;;;14.07;3.77;;;14.30;99.90;;;;;;5072508;28;20626;-57
2022/10/22 05:02:32;;;;;;;6.43;2.77;;;14.30;99.90;;;;;;5081983;28;20206;-57
2022/10/22 05:05:02;;;;;;;6.50;2.40;;;14.30;99.90;;;;;;5088955;28;20200;-57
2022/10/22 05:08:12;;;;;;;8.57;2.70;;;14.30;99.90;;;;;;5091633;28;20191;-57
2022/10/22 05:10:45;;;;;;;11.27;3.47;;;14.30;99.90;;;;;;5073493;28;20196;-57
2022/10/22 05:13:32;;;;;;;11.57;2.90;;;14.30;99.90;;;;;;5071704;28;20526;-59
2022/10/22 05:16:01;;;;;;;8.10;3.03;;;14.30;99.90;;;;;;5062459;28;20188;-57
2022/10/22 05:18:33;;;;;;;8.70;2.37;;;14.30;99.90;;;;;;5081355;28;20196;-57
2022/10/22 05:21:30;;;;;;;13.80;2.57;;;14.30;99.90;;;;;;5071578;28;20277;-58
2022/10/22 05:24:17;;;;;;;11.67;2.90;;;14.30;99.90;;;;;;5085543;28;20193;-59
2022/10/22 05:27:15;;;;;;;8.37;2.63;;;14.30;99.90;;;;;;5087846;28;20192;-58
2022/10/22 05:30:04;;;;;;;6.70;2.40;;;14.20;99.90;;;;;;5073803;28;20607;-58
2022/10/22 05:37:00;;;;;;;7.13;2.80;;;14.10;99.90;;;;;;5086484;28;20186;-58
2022/10/22 05:39:31;;;;;;;10.90;2.47;;;14.10;99.90;;;;;;5096741;28;20194;-58
2022/10/22 05:42:02;;;;;;;9.47;3.30;;;14.00;99.90;;;;;;5075243;28;20215;-58
2022/10/22 05:52:39;;;;;;;9.13;2.53;;;14.10;99.90;;;;;;5102984;28;20249;-58
2022/10/22 05:55:08;;;;;;;9.37;2.80;;;14.10;99.90;;;;;;5086456;28;20207;-59
2022/10/22 05:58:18;;;;;;;7.30;2.50;;;14.20;99.90;;;;;;5086889;28;20541;-57
2022/10/22 06:00:51;;;;;;;7.27;2.70;;;14.20;99.90;;;;;;5090526;28;20195;-57
2022/10/22 06:03:22;;;;;;;10.03;3.77;;;14.30;99.90;;;;;;5092948;28;20265;-57
2022/10/22 06:05:56;;;;;;;12.23;3.20;;;14.30;99.90;;;;;;5106224;28;20402;-58
2022/10/22 06:12:21;;;;;;;10.67;2.83;;;14.30;99.90;;;;;;5112198;27;20202;-59
2022/10/22 06:14:51;;;;;;;4.50;2.80;;;14.40;99.90;;;;;;5109978;28;20190;-58
2022/10/22 06:17:20;;;;;;;11.40;3.00;;;14.40;99.90;;;;;;5110781;28;20638;-59
2022/10/22 06:19:48;;;;;;;10.23;2.67;;;14.50;99.90;;;;;;5116415;28;20190;-58
2022/10/22 06:22:36;;;;;;;5.80;2.50;;;14.50;99.90;;;;;;5097677;28;20210;-58
2022/10/22 06:29:44;;;;;;;7.53;2.60;;;14.60;99.90;;;;;;5104098;28;20178;-57
2022/10/22 06:32:13;;;;;;;7.50;3.13;;;14.60;99.90;;;;;;5078569;28;20192;-57
2022/10/22 06:38:38;;;;;;;6.63;2.63;;;14.60;99.90;;;;;;5095779;28;20186;-58
2022/10/22 06:41:32;;;;;;;13.27;2.50;;;14.70;99.90;;;;;;5115047;28;20197;-59
2022/10/22 06:48:42;;;;;;;9.70;2.67;;;14.70;99.90;;;;;;5111044;28;20868;-57
2022/10/22 06:51:12;;;;;;;11.70;3.43;;;14.80;99.90;;;;;;5115791;28;20195;-57
2022/10/22 06:58:25;;;;;;;13.43;3.20;;;14.90;99.90;;;;;;5095262;28;20179;-58
2022/10/22 07:04:36;;;;;;;9.23;3.50;;;14.80;99.90;;;;;;5098552;28;20570;-59
2022/10/22 07:07:08;;;;;;;8.40;3.07;;;14.80;99.90;;;;;;5127377;27;20295;-58
2022/10/22 07:09:38;;;;;;;15.07;4.77;;;14.80;99.90;;;;;;5115337;28;20190;-59
2022/10/22 07:12:08;;;;;;;16.87;5.87;;;14.80;99.90;;;;;;5099321;28;20192;-59
2022/10/22 07:15:30;;;;;;;16.90;5.80;;;14.80;99.90;;;;;;5076742;28;20211;-58
2022/10/22 07:18:49;;;;;;;20.17;7.57;;;14.80;99.90;;;;;;5104466;28;20191;-59
2022/10/22 07:21:46;;;;;;;10.23;3.83;;;14.80;99.90;;;;;;5115400;28;20198;-58
2022/10/22 07:24:34;;;;;;;7.97;2.40;;;14.80;99.90;;;;;;5085401;28;20226;-59
2022/10/22 07:27:30;;;;;;;6.13;2.30;;;14.80;99.90;;;;;;5074185;28;20204;-58
2022/10/22 07:30:37;;;;;;;11.27;2.47;;;14.80;99.90;;;;;;5103574;28;20557;-58
2022/10/22 07:33:36;;;;;;;8.00;2.23;;;14.80;99.90;;;;;;5105798;27;20645;-58
2022/10/22 07:40:50;;;;;;;7.83;2.60;;;14.90;99.90;;;;;;5104045;28;20279;-59
2022/10/22 07:43:19;;;;;;;10.17;2.40;;;15.10;99.90;;;;;;5114824;28;20207;-59
2022/10/22 07:49:17;;;;;;;9.47;2.50;;;15.20;99.90;;;;;;5114613;28;20214;-58
2022/10/22 07:51:46;;;;;;;10.53;2.50;;;15.30;99.90;;;;;;5114719;28;20186;-59
2022/10/22 07:58:13;;;;;;;8.80;2.30;;;15.30;99.90;;;;;;5114691;28;20183;-58
2022/10/22 08:04:42;;;;;;;12.40;2.30;;;15.50;99.90;;;;;;5114340;28;20222;-58
2022/10/22 08:11:06;;;;;;;6.27;2.17;;;15.90;99.90;;;;;;5093950;28;20195;-59
2022/10/22 08:17:15;;;;;;;7.90;2.07;;;15.90;99.90;;;;;;5100725;28;20192;-58
2022/10/22 08:23:15;;;;;;;9.03;2.20;;;16.10;99.90;;;;;;5093130;28;20669;-58
2022/10/22 08:25:46;;;;;;;9.87;2.17;;;16.10;99.90;;;;;;5075602;28;20191;-59
2022/10/22 08:32:34;;;;;;;6.30;2.37;;;16.10;99.90;;;;;;5128072;27;20486;-58
2022/10/22 08:38:58;;;;;;;10.30;2.80;;;15.90;99.90;;;;;;5112337;28;20190;-59
2022/10/22 08:41:34;;;;;;;8.27;2.30;;;16.00;99.90;;;;;;5127676;27;20591;-58
2022/10/22 08:44:37;;;;;;;7.17;2.47;;;16.10;99.90;;;;;;5113375;28;20214;-58
2022/10/22 08:51:12;;;;;;;7.10;2.27;;;16.40;99.90;;;;;;5113369;28;20243;-59
2022/10/22 08:54:18;;;;;;;6.87;2.50;;;16.50;99.90;;;;;;5093219;28;20199;-59
2022/10/22 08:57:19;;;;;;;7.17;2.40;;;16.60;99.90;;;;;;5092930;28;20253;-58
2022/10/22 08:59:57;;;;;;;10.60;2.53;;;16.90;99.90;;;;;;5075339;28;20184;-59
2022/10/22 09:02:38;;;;;;;9.13;2.33;;;17.10;99.90;;;;;;5095161;28;20233;-60
2022/10/22 09:05:46;;;;;;;9.03;2.50;;;17.30;99.90;;;;;;5113043;28;20743;-58
2022/10/22 09:12:17;;;;;;;5.33;2.10;;;17.70;99.90;;;;;;5110923;27;20189;-58
2022/10/22 09:18:47;;;;;;;5.80;1.90;;;18.00;99.90;;;;;;5092844;28;20179;-59
2022/10/22 09:22:08;;;;;;;8.50;2.10;;;17.80;99.90;;;;;;5092794;28;20194;-58
2022/10/22 09:24:45;;;;;;;7.13;2.30;;;17.70;99.90;;;;;;5108276;28;20573;-58
2022/10/22 09:30:45;;;;;;;8.47;2.23;;;17.60;99.90;;;;;;5110317;28;20282;-58
2022/10/22 09:33:25;;;;;;;10.13;2.30;;;17.60;99.90;;;;;;5112774;28;20219;-58
2022/10/22 09:36:13;;;;;;;8.10;2.17;;;17.60;99.90;;;;;;5112353;28;20657;-58
2022/10/22 09:38:48;;;;;;;4.90;2.23;;;17.70;99.90;;;;;;5113256;28;20794;-58
2022/10/22 09:46:15;;;;;;;8.33;2.27;;;18.00;99.90;;;;;;5098649;28;20604;-58
2022/10/22 09:48:51;;;;;;;7.20;2.40;;;17.90;99.90;;;;;;5104827;28;20197;-59
2022/10/22 09:51:22;;;;;;;7.70;2.30;;;17.90;99.90;;;;;;5116201;28;20568;-59
2022/10/22 09:53:57;;;;;;;9.87;2.40;;;18.00;99.90;;;;;;5098137;28;20183;-59
2022/10/22 09:56:28;;;;;;;6.63;2.30;;;18.20;99.90;;;;;;5116051;28;20198;-59
2022/10/22 09:58:57;;;;;;;6.97;2.10;;;18.30;99.90;;;;;;5116402;28;20251;-59
2022/10/22 10:05:18;;;;;;;6.07;2.00;;;18.40;99.90;;;;;;5085841;28;20259;-59
2022/10/22 10:12:20;;;;;;;6.40;2.20;;;18.70;99.90;;;;;;5096178;28;20183;-58
2022/10/22 10:14:55;;;;;;;12.40;2.53;;;18.80;99.90;;;;;;5108362;27;20182;-59
2022/10/22 10:17:31;;;;;;;5.63;1.90;;;18.60;99.90;;;;;;5093042;28;20198;-59
2022/10/22 10:20:39;;;;;;;9.40;2.50;;;18.60;99.90;;;;;;5104546;28;20191;-59
2022/10/22 10:23:18;;;;;;;6.03;2.00;;;18.60;99.90;;;;;;5097815;28;20560;-59
2022/10/22 10:29:49;;;;;;;5.77;2.27;;;18.70;99.90;;;;;;5105417;28;20206;-59
2022/10/22 10:32:37;;;;;;;7.40;2.27;;;19.00;99.90;;;;;;5107940;28;20188;-59
2022/10/22 10:35:26;;;;;;;7.67;2.03;;;19.00;99.90;;;;;;5086441;28;20206;-59
2022/10/22 10:38:08;;;;;;;5.77;2.23;;;19.10;99.90;;;;;;5115976;28;20241;-59
2022/10/22 10:41:16;;;;;;;8.67;2.20;;;19.10;99.90;;;;;;5108243;28;20533;-59
2022/10/22 10:44:14;;;;;;;8.03;2.43;;;18.90;99.90;;;;;;5085774;27;20199;-59
2022/10/22 10:47:20;;;;;;;10.00;2.27;;;18.70;99.90;;;;;;5117614;27;20194;-59
2022/10/22 10:49:54;;;;;;;8.27;2.40;;;18.70;99.90;;;;;;5116723;27;20195;-59
2022/10/22 10:52:30;;;;;;;6.03;2.10;;;19.00;99.90;;;;;;5114736;28;20191;-59
2022/10/22 10:55:18;;;;;;;7.83;2.17;;;19.20;99.90;;;;;;5112524;27;20193;-59
2022/10/22 10:57:55;;;;;;;9.13;2.00;;;19.30;99.90;;;;;;5116622;27;20198;-59
2022/10/22 11:00:35;;;;;;;6.30;2.20;;;19.20;99.90;;;;;;5104801;28;20191;-59
2022/10/22 11:03:30;;;;;;;10.37;1.90;;;19.20;99.90;;;;;;5112546;28;20548;-59
2022/10/22 11:06:00;;;;;;;7.33;2.10;;;19.20;99.90;;;;;;5054556;28;20231;-59
2022/10/22 11:08:53;;;;;;;14.23;2.40;;;19.50;99.90;;;;;;5076818;28;20701;-59
2022/10/22 11:15:12;;;;;;;4.03;1.80;;;19.70;99.90;;;;;;5056675;28;20268;-59
2022/10/22 11:18:21;;;;;;;7.57;2.20;;;19.70;99.90;;;;;;5092667;28;20260;-59
2022/10/22 11:21:17;;;;;;;5.57;1.97;;;19.50;99.90;;;;;;5074839;28;20202;-59
2022/10/22 11:28:20;;;;;;;5.63;2.20;;;19.00;99.90;;;;;;5092385;28;20603;-59
2022/10/22 11:30:57;;;;;;;4.57;2.13;;;19.10;99.90;;;;;;5082222;28;20195;-59
2022/10/22 11:33:30;;;;;;;10.57;2.60;;;19.30;99.90;;;;;;5075321;28;20203;-58
2022/10/22 11:36:29;;;;;;;7.03;2.60;;;19.50;99.90;;;;;;5089228;28;20241;-59
2022/10/22 11:38:58;;;;;;;6.53;2.70;;;20.00;99.90;;;;;;5108887;28;20233;-59
2022/10/22 11:45:31;;;;;;;12.10;3.10;;;19.90;99.90;;;;;;5074272;28;20199;-59
2022/10/22 11:48:15;;;;;;;6.13;2.50;;;19.90;99.90;;;;;;5081088;28;20211;-58
2022/10/22 11:50:58;;;;;;;10.43;2.90;;;19.60;99.90;;;;;;5062285;28;20206;-59
2022/10/22 11:53:32;;;;;;;5.27;2.30;;;19.40;99.90;;;;;;5081109;28;20196;-59
2022/10/22 11:56:24;;;;;;;8.20;2.50;;;19.50;99.90;;;;;;5099677;28;20197;-59
2022/10/22 11:59:30;;;;;;;6.07;2.40;;;19.80;99.90;;;;;;5072186;28;20196;-60
2022/10/22 12:02:45;;;;;;;3.83;2.37;;;20.10;99.90;;;;;;5073574;28;20207;-60
2022/10/22 12:05:44;;;;;;;6.00;2.50;;;20.20;99.90;;;;;;5085314;28;20223;-59
2022/10/22 12:08:24;;;;;;;5.33;2.30;;;20.30;99.90;;;;;;5092261;28;20655;-59
2022/10/22 12:11:20;;;;;;;5.47;2.10;;;20.30;99.90;;;;;;5107580;28;20198;-58
2022/10/22 12:14:01;;;;;;;7.70;2.53;;;20.40;99.90;;;;;;5077121;28;20665;-58
2022/10/22 12:17:10;;;;;;;5.37;2.70;;;20.40;99.90;;;;;;5082604;28;20191;-59
2022/10/22 12:19:43;;;;;;;9.37;2.80;;;20.40;99.90;;;;;;5091600;28;20187;-58
2022/10/22 12:22:49;;;;;;;6.40;2.57;;;20.80;99.90;;;;;;5082492;28;20687;-59
2022/10/22 12:25:22;;;;;;;6.87;2.90;;;20.70;99.90;;;;;;5093434;28;20605;-59
2022/10/22 12:31:45;;;;;;;5.87;2.27;;;20.80;99.90;;;;;;5090484;28;20195;-59
2022/10/22 12:38:22;;;;;;;7.20;3.17;;;20.80;99.90;;;;;;5098655;28;20198;-59
2022/10/22 12:40:55;;;;;;;8.27;3.10;;;20.60;99.90;;;;;;5074005;28;20187;-58
2022/10/22 12:43:28;;;;;;;9.67;2.73;;;20.60;99.90;;;;;;5092630;28;20642;-60
2022/10/22 12:45:58;;;;;;;7.73;2.93;;;20.90;99.90;;;;;;5069725;28;20600;-59
2022/10/22 12:48:33;;;;;;;2.67;2.47;;;21.10;99.90;;;;;;5093258;28;20682;-58
2022/10/22 12:55:38;;;;;;;3.40;2.20;;;21.20;99.90;;;;;;5088390;28;20206;-59
2022/10/22 12:58:08;;;;;;;7.07;2.30;;;21.40;99.90;;;;;;5090220;28;20200;-58
2022/10/22 13:01:00;;;;;;;4.40;2.00;;;21.30;99.90;;;;;;5074512;28;20843;-59
2022/10/22 13:03:34;;;;;;;3.80;2.07;;;21.20;99.90;;;;;;5088548;28;20222;-59
2022/10/22 13:06:40;;;;;;;3.50;1.90;;;21.10;99.90;;;;;;5068661;28;20539;-59
2022/10/22 13:09:15;;;;;;;3.03;1.90;;;20.80;99.90;;;;;;5073644;28;20200;-59
2022/10/22 13:11:57;;;;;;;4.37;1.70;;;20.70;99.90;;;;;;5075818;28;20187;-58
2022/10/22 13:14:29;;;;;;;4.57;1.80;;;20.60;99.90;;;;;;5082923;28;20298;-58
2022/10/22 13:17:06;;;;;;;4.77;2.10;;;20.70;99.90;;;;;;5091379;28;20187;-58
2022/10/22 13:19:49;;;;;;;4.07;2.00;;;20.70;99.90;;;;;;5060410;28;20219;-58
2022/10/22 13:22:33;;;;;;;4.27;1.67;;;20.70;99.90;;;;;;5084919;28;20210;-59
2022/10/22 13:25:54;;;;;;;5.13;1.83;;;20.60;99.90;;;;;;5069512;28;20211;-58
2022/10/22 13:28:29;;;;;;;4.90;1.83;;;20.40;99.90;;;;;;5088166;28;20202;-59
2022/10/22 13:31:38;;;;;;;6.00;2.10;;;20.20;99.90;;;;;;5103081;28;20191;-58
2022/10/22 13:34:08;;;;;;;4.87;2.17;;;20.20;99.90;;;;;;5088322;28;20892;-58
2022/10/22 13:36:43;;;;;;;6.77;1.90;;;20.10;99.90;;;;;;5072125;28;20259;-59
2022/10/22 13:39:40;;;;;;;4.83;1.87;;;20.00;99.90;;;;;;5090844;28;20372;-59
2022/10/22 13:42:12;;;;;;;2.30;1.80;;;20.10;99.90;;;;;;5092095;28;20203;-58
2022/10/22 13:44:40;;;;;;;5.07;1.97;;;20.10;99.90;;;;;;5090015;28;20195;-59
2022/10/22 13:47:23;;;;;;;5.70;2.03;;;20.20;99.90;;;;;;5054265;28;21983;-58
2022/10/22 13:49:53;;;;;;;3.00;1.63;;;20.20;99.90;;;;;;5088269;28;20195;-59
2022/10/22 13:52:36;;;;;;;7.03;2.00;;;20.10;99.90;;;;;;5071416;28;20190;-58
2022/10/22 13:55:13;;;;;;;4.47;1.87;;;20.10;99.90;;;;;;5080040;28;20199;-58
2022/10/22 13:58:06;;;;;;;7.90;1.80;;;20.10;99.90;;;;;;5084258;28;20198;-59
2022/10/22 14:00:38;;;;;;;6.67;1.90;;;20.10;99.90;;;;;;5091669;28;20205;-58
2022/10/22 14:03:12;;;;;;;4.40;1.63;;;20.20;99.90;;;;;;5091680;28;20195;-59
2022/10/22 14:05:41;;;;;;;6.20;1.80;;;20.20;99.90;;;;;;5110813;28;20227;-58
2022/10/22 14:08:12;;;;;;;6.50;1.83;;;20.20;99.90;;;;;;5112399;28;20553;-58
2022/10/22 14:11:00;;;;;;;8.83;1.60;;;20.30;99.90;;;;;;5093745;28;20190;-59
2022/10/22 14:13:29;;;;;;;9.47;1.90;;;20.40;99.90;;;;;;5112394;28;20195;-58
2022/10/22 14:20:35;;;;;;;6.93;1.83;;;20.50;99.90;;;;;;5104142;28;20175;-58
2022/10/22 14:23:15;;;;;;;3.83;1.50;;;20.40;99.90;;;;;;5076742;28;20183;-59
2022/10/22 14:25:51;;;;;;;5.53;2.90;;;20.40;99.90;;;;;;5093364;28;20207;-58
2022/10/22 14:28:23;;;;;;;6.27;2.30;;;20.40;99.90;;;;;;5111874;28;20202;-59
2022/10/22 14:30:52;;;;;;;11.33;5.13;;;20.40;99.90;;;;;;5111526;28;20206;-58
2022/10/22 14:33:29;;;;;;;7.77;3.17;;;20.40;99.90;;;;;;5110639;28;20231;-58
2022/10/22 14:36:20;;;;;;;7.73;4.30;;;20.40;99.90;;;;;;5115943;28;20222;-59
2022/10/22 14:38:52;;;;;;;7.17;3.77;;;20.40;99.90;;;;;;5096640;27;20236;-58
2022/10/22 14:41:23;;;;;;;12.07;5.27;;;20.30;99.90;;;;;;5115612;28;20202;-58
2022/10/22 14:43:58;;;;;;;6.27;1.90;;;20.30;99.90;;;;;;5115417;28;20187;-59
2022/10/22 14:46:29;;;;;;;7.50;3.23;;;20.30;99.90;;;;;;5124182;27;20239;-59
2022/10/22 14:48:57;;;;;;;6.93;1.80;;;20.30;99.90;;;;;;5111138;28;20528;-58
2022/10/22 14:51:25;;;;;;;4.83;1.80;;;20.30;99.90;;;;;;5110870;27;20588;-58
2022/10/22 14:54:17;;;;;;;7.83;1.83;;;20.20;99.90;;;;;;5108460;27;20229;-58
2022/10/22 14:56:48;;;;;;;9.27;1.77;;;20.20;99.90;;;;;;5083602;28;20225;-58
2022/10/22 15:03:29;;;;;;;9.23;2.03;;;20.00;99.90;;;;;;5089355;28;20702;-58
2022/10/22 15:05:59;;;;;;;5.33;1.77;;;19.90;99.90;;;;;;5102447;28;20205;-58
2022/10/22 15:11:56;;;;;;;3.80;1.53;;;19.70;99.90;;;;;;5092548;28;20262;-57
2022/10/22 15:14:28;;;;;;;3.13;1.80;;;19.70;99.90;;;;;;5112428;28;20190;-58
2022/10/22 15:16:57;;;;;;;4.83;1.63;;;19.60;99.90;;;;;;5085781;28;20180;-58
2022/10/22 15:20:07;;;;;;;5.00;1.43;;;19.60;99.90;;;;;;5102963;28;20206;-58
2022/10/22 15:22:36;;;;;;;4.20;1.90;;;19.50;99.90;;;;;;5111937;28;20656;-58
2022/10/22 15:25:27;;;;;;;5.23;2.00;;;19.50;99.90;;;;;;5113112;28;20299;-58
2022/10/22 15:28:01;;;;;;;7.77;1.90;;;19.40;99.90;;;;;;5104032;28;20742;-58
2022/10/22 15:30:37;;;;;;;4.47;1.47;;;19.30;99.90;;;;;;5101919;28;20207;-58
2022/10/22 15:33:06;;;;;;;4.83;1.77;;;19.40;99.90;;;;;;5108649;27;20198;-58
2022/10/22 15:35:34;;;;;;;4.03;1.50;;;19.40;99.90;;;;;;5103317;28;20194;-59
2022/10/22 15:38:40;;;;;;;6.00;1.73;;;19.30;99.90;;;;;;5097089;28;20186;-59
2022/10/22 15:41:12;;;;;;;5.20;1.63;;;19.30;99.90;;;;;;5112247;28;20197;-59
2022/10/22 15:43:44;;;;;;;5.33;1.80;;;19.20;99.90;;;;;;5094011;28;20539;-59
2022/10/22 15:46:15;;;;;;;5.40;1.73;;;19.20;99.90;;;;;;5093823;28;20537;-59
2022/10/22 15:49:21;;;;;;;7.37;2.10;;;19.10;99.90;;;;;;5102536;27;20197;-58
2022/10/22 15:51:54;;;;;;;2.80;1.63;;;19.00;99.90;;;;;;5100141;28;20210;-59
2022/10/22 15:54:27;;;;;;;6.97;1.90;;;19.00;99.90;;;;;;5101193;28;20260;-60
2022/10/22 15:56:56;;;;;;;7.33;2.27;;;18.90;99.90;;;;;;5094048;28;20193;-58
2022/10/22 16:00:04;;;;;;;3.37;2.07;;;18.80;99.90;;;;;;5110375;28;20215;-59
2022/10/22 16:03:04;;;;;;;4.93;2.13;;;18.70;99.90;;;;;;5110949;27;20285;-58
2022/10/22 16:05:41;;;;;;;4.67;2.27;;;18.60;99.90;;;;;;5087027;28;20235;-58
2022/10/22 16:11:56;;;;;;;5.80;2.20;;;18.40;99.90;;;;;;5091969;28;20668;-58
2022/10/22 16:15:06;;;;;;;6.70;2.00;;;18.30;99.90;;;;;;5129859;27;20718;-59
2022/10/22 16:18:01;;;;;;;6.10;1.90;;;18.20;99.90;;;;;;5113431;28;20202;-59
2022/10/22 16:20:50;;;;;;;8.30;1.87;;;18.10;99.90;;;;;;5094336;28;20190;-59
2022/10/22 16:23:19;;;;;;;10.03;2.33;;;17.90;99.90;;;;;;5093799;28;20188;-58
2022/10/22 16:29:41;;;;;;;10.33;2.07;;;17.70;99.90;;;;;;5108036;28;20202;-59
2022/10/22 16:32:12;;;;;;;4.17;2.00;;;17.60;99.90;;;;;;5094657;28;20195;-60
2022/10/22 16:35:21;;;;;;;3.93;2.10;;;17.50;99.90;;;;;;5104286;28;20215;-59
2022/10/22 16:37:52;;;;;;;3.90;2.07;;;17.40;99.90;;;;;;5101812;28;20545;-59
2022/10/22 16:40:21;;;;;;;5.77;2.07;;;17.30;99.90;;;;;;5103612;28;20704;-59
2022/10/22 16:42:52;;;;;;;3.20;2.30;;;17.10;99.90;;;;;;5093450;28;20673;-59
2022/10/22 16:45:46;;;;;;;5.83;2.13;;;17.00;99.90;;;;;;5100238;28;20194;-59
2022/10/22 16:48:19;;;;;;;8.90;2.30;;;16.90;99.90;;;;;;5124337;27;20699;-59
2022/10/22 16:51:24;;;;;;;7.63;2.43;;;16.70;99.90;;;;;;5094232;28;20195;-59
2022/10/22 16:53:57;;;;;;;9.63;4.17;;;16.70;99.90;;;;;;5092027;28;20249;-57
2022/10/22 16:57:06;;;;;;;5.87;3.60;;;16.50;99.90;;;;;;5080616;28;20197;-59
2022/10/22 16:59:37;;;;;;;5.60;2.80;;;16.40;99.90;;;;;;5110326;28;20523;-59
2022/10/22 17:02:06;;;;;;;9.23;2.67;;;16.40;99.90;;;;;;5112829;27;20280;-58
2022/10/22 17:04:34;;;;;;;11.30;2.67;;;16.30;99.90;;;;;;5093310;27;20237;-58
2022/10/22 17:07:41;;;;;;;8.30;3.00;;;16.20;99.90;;;;;;5116868;27;20264;-58
2022/10/22 17:10:48;;;;;;;10.23;3.07;;;16.10;99.90;;;;;;5108531;27;20202;-58
2022/10/22 17:16:57;;;;;;;5.60;3.20;;;15.80;99.90;;;;;;5088922;28;20188;-59
2022/10/22 17:23:21;;;;;;;11.07;4.73;;;15.60;99.90;;;;;;5112066;28;20194;-59
2022/10/22 17:26:20;;;;;;;19.67;5.03;;;15.50;99.90;;;;;;5112853;28;20515;-58
2022/10/22 17:32:39;;;;;;;8.60;3.77;;;15.30;99.90;;;;;;5104951;28;20209;-58
2022/10/22 17:35:09;;;;;;;11.77;4.40;;;15.20;99.90;;;;;;5104234;28;20219;-58
2022/10/22 17:38:17;;;;;;;13.87;5.97;;;15.10;99.90;;;;;;5094243;28;20191;-58
2022/10/22 17:40:46;;;;;;;12.13;4.63;;;15.10;99.90;;;;;;5105021;28;20194;-59
2022/10/22 17:47:25;;;;;;;17.13;6.63;;;15.00;99.90;;;;;;5109144;28;20678;-58
2022/10/22 17:49:57;;;;;;;15.93;6.87;;;14.90;99.90;;;;;;5099766;28;20248;-57
2022/10/22 17:52:27;;;;;;;19.77;7.10;;;14.90;99.90;;;;;;5107957;28;20213;-58
2022/10/22 17:55:00;;;;;;;14.70;7.33;;;14.90;99.90;;;;;;5112331;28;20202;-58
2022/10/22 17:57:29;;;;;;;16.40;7.00;;;14.80;99.90;;;;;;5114398;28;20488;-58
2022/10/22 18:00:28;;;;;;;16.03;7.60;;;14.80;99.90;;;;;;5112354;28;20649;-58
2022/10/22 18:06:28;;;;;;;16.53;7.30;;;14.70;99.90;;;;;;5078645;28;20768;-58
2022/10/22 18:09:05;;;;;;;17.13;8.00;;;14.70;99.90;;;;;;5096031;28;20216;-58